Time;durP1;ratioP1;P1;durP2;ratioP2;P2;SDS_P1;SDS_P2;PMS_P1;PMS_P2;Temp;Humidity;BMP_temperature;BMP_pressure;BME280_temperature;BME280_humidity;BME280_pressure;Samples;Min_cycle;Max_cycle;Signal;HPM_P1;HPM_P2
2023/07/20 00:00:35;;;;;;;7.57;3.30;;;10.20;99.90;;;;;;5055375;28;20190;-78
2023/07/20 00:03:19;;;;;;;8.15;3.40;;;10.30;99.90;;;;;;5055030;28;20196;-78
2023/07/20 00:05:50;;;;;;;8.48;3.38;;;10.40;99.90;;;;;;5054339;28;20197;-78
2023/07/20 00:08:21;;;;;;;7.95;2.72;;;10.50;99.90;;;;;;5060197;28;20712;-77
2023/07/20 00:10:54;;;;;;;8.10;3.20;;;10.60;99.90;;;;;;5054629;28;20189;-78
2023/07/20 00:13:25;;;;;;;8.68;3.28;;;10.80;99.90;;;;;;5054712;28;20194;-78
2023/07/20 00:15:56;;;;;;;7.13;2.70;;;10.90;99.90;;;;;;5054327;28;20209;-78
2023/07/20 00:18:27;;;;;;;9.02;2.80;;;11.10;99.90;;;;;;5054545;28;20193;-77
2023/07/20 00:20:59;;;;;;;6.38;2.80;;;11.20;99.90;;;;;;5054636;28;20276;-78
2023/07/20 00:23:31;;;;;;;9.88;2.60;;;11.30;99.90;;;;;;5054457;28;20243;-78
2023/07/20 00:26:04;;;;;;;7.82;2.53;;;11.50;99.90;;;;;;5058109;28;20189;-79
2023/07/20 00:28:35;;;;;;;6.55;2.60;;;11.60;99.90;;;;;;5054783;28;20205;-81
2023/07/20 00:31:06;;;;;;;8.35;2.50;;;11.80;99.90;;;;;;5054423;28;20196;-77
2023/07/20 00:33:37;;;;;;;6.03;2.35;;;12.00;99.90;;;;;;5053844;28;20661;-78
2023/07/20 00:36:09;;;;;;;7.85;2.55;;;12.10;99.90;;;;;;5053919;28;20197;-78
2023/07/20 00:38:40;;;;;;;6.82;2.63;;;12.10;99.90;;;;;;5053581;28;20689;-80
2023/07/20 00:41:14;;;;;;;6.97;2.50;;;12.20;99.90;;;;;;5054248;28;20194;-79
2023/07/20 00:43:45;;;;;;;5.75;2.58;;;12.40;99.90;;;;;;5054214;28;20231;-78
2023/07/20 00:46:16;;;;;;;5.88;2.22;;;12.60;99.90;;;;;;5054181;28;20562;-80
2023/07/20 00:48:47;;;;;;;5.82;2.10;;;12.80;99.90;;;;;;5054089;28;20198;-78
2023/07/20 00:51:19;;;;;;;9.23;2.10;;;12.90;99.90;;;;;;5053403;28;20186;-79
2023/07/20 00:53:50;;;;;;;7.65;2.10;;;13.00;99.90;;;;;;5053612;28;20185;-78
2023/07/20 00:56:24;;;;;;;6.38;1.65;;;13.20;99.90;;;;;;5054388;28;20285;-78
2023/07/20 00:58:56;;;;;;;7.57;2.17;;;13.20;99.90;;;;;;5053375;28;20216;-77
2023/07/20 01:01:27;;;;;;;2.55;1.58;;;13.30;99.90;;;;;;5053986;28;20263;-76
2023/07/20 01:03:59;;;;;;;4.35;1.67;;;13.30;99.90;;;;;;5053256;28;20194;-78
2023/07/20 01:06:39;;;;;;;7.38;1.65;;;13.50;99.90;;;;;;5054024;28;20186;-76
2023/07/20 01:09:16;;;;;;;5.30;1.67;;;13.70;99.90;;;;;;5053113;28;20229;-81
2023/07/20 01:11:56;;;;;;;4.95;1.60;;;13.90;99.90;;;;;;5053664;28;20193;-77
2023/07/20 01:14:28;;;;;;;4.88;1.65;;;14.10;99.90;;;;;;5052034;28;20785;-81
2023/07/20 01:17:02;;;;;;;3.80;1.40;;;14.30;99.90;;;;;;5052266;28;20559;-77
2023/07/20 01:19:34;;;;;;;6.35;1.67;;;14.40;99.90;;;;;;5052460;28;20231;-77
2023/07/20 01:22:14;;;;;;;4.93;1.65;;;14.50;99.90;;;;;;5052821;28;20204;-79
2023/07/20 01:25:14;;;;;;;5.25;1.23;;;14.60;99.90;;;;;;5052850;28;20320;-77
2023/07/20 01:28:16;;;;;;;7.22;1.33;;;14.70;99.90;;;;;;5053090;28;20287;-78
2023/07/20 01:30:58;;;;;;;7.85;1.40;;;14.80;99.90;;;;;;5053423;28;20211;-78
2023/07/20 01:33:34;;;;;;;5.22;1.48;;;14.90;99.90;;;;;;5053363;28;20194;-78
2023/07/20 01:36:06;;;;;;;3.03;0.93;;;15.10;99.90;;;;;;5053222;28;20199;-80
2023/07/20 01:38:38;;;;;;;8.95;1.83;;;15.30;99.90;;;;;;5059800;28;20201;-78
2023/07/20 01:41:10;;;;;;;4.68;0.90;;;15.50;99.90;;;;;;5068671;28;20197;-80
2023/07/20 01:43:41;;;;;;;3.58;0.90;;;15.70;99.90;;;;;;5062798;28;20221;-78
2023/07/20 01:46:12;;;;;;;2.92;0.90;;;15.80;99.90;;;;;;5058511;28;20198;-80
2023/07/20 01:48:45;;;;;;;2.10;0.68;;;15.90;99.90;;;;;;5062269;28;20737;-83
2023/07/20 01:51:17;;;;;;;1.45;0.60;;;16.00;99.90;;;;;;5056559;28;20216;-84
2023/07/20 01:53:48;;;;;;;1.15;0.50;;;16.10;99.90;;;;;;5068699;28;20718;-76
2023/07/20 01:56:20;;;;;;;2.80;0.60;;;16.30;99.90;;;;;;5053145;28;20200;-83
2023/07/20 01:58:51;;;;;;;1.73;0.60;;;16.40;99.90;;;;;;5052957;28;20196;-79
2023/07/20 02:01:22;;;;;;;2.72;0.57;;;16.60;99.90;;;;;;5060595;28;20201;-81
2023/07/20 02:03:55;;;;;;;0.80;0.45;;;16.80;99.90;;;;;;5068189;28;20205;-78
2023/07/20 02:06:26;;;;;;;2.55;0.70;;;16.90;99.90;;;;;;5052064;28;20215;-75
2023/07/20 02:08:57;;;;;;;3.35;0.50;;;16.90;99.90;;;;;;5054818;28;20235;-80
2023/07/20 02:11:28;;;;;;;2.72;0.60;;;17.00;99.90;;;;;;5051870;28;20197;-85
2023/07/20 02:13:59;;;;;;;1.42;0.50;;;17.10;99.90;;;;;;5051348;28;20199;-79
2023/07/20 02:16:31;;;;;;;1.17;0.52;;;17.10;99.90;;;;;;5070089;28;20667;-83
2023/07/20 02:19:06;;;;;;;3.45;0.80;;;17.20;99.90;;;;;;5050392;28;20725;-80
2023/07/20 02:21:37;;;;;;;1.05;0.60;;;17.30;99.90;;;;;;5059165;28;20197;-84
2023/07/20 02:24:09;;;;;;;1.38;0.47;;;17.40;99.90;;;;;;5052746;28;20691;-80
2023/07/20 02:26:40;;;;;;;3.28;0.73;;;17.40;99.90;;;;;;5053073;28;20239;-81
2023/07/20 02:29:11;;;;;;;2.38;0.70;;;17.50;99.90;;;;;;5052934;28;20194;-80
2023/07/20 02:31:42;;;;;;;3.08;0.60;;;17.60;99.90;;;;;;5052246;28;20763;-80
2023/07/20 02:34:15;;;;;;;2.70;0.60;;;17.50;99.90;;;;;;5052611;28;20186;-82
2023/07/20 02:36:48;;;;;;;2.22;0.57;;;17.60;99.90;;;;;;5052855;28;20196;-80
2023/07/20 02:39:19;;;;;;;2.55;0.70;;;17.60;99.90;;;;;;5052429;28;20253;-77
2023/07/20 02:41:50;;;;;;;2.00;0.65;;;17.60;99.90;;;;;;5051676;28;20224;-78
2023/07/20 02:44:21;;;;;;;2.97;0.60;;;17.70;99.90;;;;;;5052411;28;20300;-80
2023/07/20 02:46:52;;;;;;;2.17;0.60;;;17.70;99.90;;;;;;5053180;28;20191;-82
2023/07/20 02:49:25;;;;;;;2.63;0.60;;;17.70;99.90;;;;;;5052389;28;20220;-80
2023/07/20 02:51:56;;;;;;;0.68;0.40;;;17.80;99.90;;;;;;5053068;28;20213;-80
2023/07/20 02:54:27;;;;;;;1.45;0.70;;;17.90;99.90;;;;;;5051581;28;20205;-81
2023/07/20 02:56:59;;;;;;;1.08;0.47;;;17.90;99.90;;;;;;5052011;28;20201;-80
2023/07/20 02:59:30;;;;;;;4.28;0.73;;;17.90;99.90;;;;;;5054681;28;20228;-79
2023/07/20 03:02:01;;;;;;;2.55;0.60;;;17.90;99.90;;;;;;5055594;28;20190;-79
2023/07/20 03:04:34;;;;;;;2.60;0.57;;;17.90;99.90;;;;;;5054874;28;20244;-82
2023/07/20 03:07:05;;;;;;;1.35;0.50;;;17.90;99.90;;;;;;5056171;28;20198;-80
2023/07/20 03:09:36;;;;;;;2.28;0.55;;;17.90;99.90;;;;;;5055337;28;20662;-79
2023/07/20 03:12:08;;;;;;;1.98;0.73;;;17.80;99.90;;;;;;5055839;28;20193;-78
2023/07/20 03:14:40;;;;;;;2.75;0.55;;;17.80;99.90;;;;;;5055688;28;20561;-80
2023/07/20 03:17:11;;;;;;;2.90;1.55;;;17.80;99.90;;;;;;5056030;28;20558;-80
2023/07/20 03:19:44;;;;;;;4.63;1.38;;;17.80;99.90;;;;;;5067407;28;20232;-79
2023/07/20 03:22:15;;;;;;;2.20;0.90;;;17.90;99.90;;;;;;5056811;28;20676;-80
2023/07/20 03:24:46;;;;;;;1.27;0.40;;;17.90;99.90;;;;;;5055785;28;20190;-78
2023/07/20 03:27:17;;;;;;;1.65;0.60;;;17.90;99.90;;;;;;5055207;28;20232;-85
2023/07/20 03:29:48;;;;;;;3.20;0.60;;;18.00;99.90;;;;;;5055702;28;20306;-82
2023/07/20 03:32:20;;;;;;;2.47;0.60;;;18.10;99.90;;;;;;5055278;28;20200;-82
2023/07/20 03:34:53;;;;;;;1.80;0.73;;;18.10;99.90;;;;;;5055464;28;20201;-82
2023/07/20 03:37:24;;;;;;;2.25;0.57;;;18.20;99.90;;;;;;5055507;28;20194;-79
2023/07/20 03:39:55;;;;;;;2.50;0.70;;;18.30;99.90;;;;;;5055230;28;20210;-84
2023/07/20 03:42:26;;;;;;;2.67;0.60;;;18.30;99.90;;;;;;5061722;28;20579;-80
2023/07/20 03:44:57;;;;;;;0.77;0.50;;;18.40;99.90;;;;;;5055383;28;20186;-84
2023/07/20 03:47:28;;;;;;;2.60;0.60;;;18.30;99.90;;;;;;5054782;28;20259;-82
2023/07/20 03:50:02;;;;;;;2.10;0.50;;;18.30;99.90;;;;;;5055208;28;20198;-80
2023/07/20 03:52:33;;;;;;;1.15;0.55;;;18.30;99.90;;;;;;5055190;28;20186;-80
2023/07/20 03:55:04;;;;;;;1.27;0.57;;;18.30;99.90;;;;;;5055295;28;20209;-86
2023/07/20 03:57:35;;;;;;;2.97;0.98;;;18.30;99.90;;;;;;5055182;28;20202;-79
2023/07/20 04:00:07;;;;;;;2.08;0.63;;;18.30;99.90;;;;;;5053810;28;20220;-79
2023/07/20 04:02:39;;;;;;;1.70;0.57;;;18.30;99.90;;;;;;5054199;28;20221;-81
2023/07/20 04:05:13;;;;;;;2.30;0.50;;;18.40;99.90;;;;;;5054460;28;20201;-80
2023/07/20 04:07:44;;;;;;;3.00;0.90;;;18.40;99.90;;;;;;5055288;28;20201;-78
2023/07/20 04:10:15;;;;;;;2.92;0.70;;;18.40;99.90;;;;;;5054031;28;20681;-79
2023/07/20 04:12:47;;;;;;;1.80;0.52;;;18.40;99.90;;;;;;5054236;28;20190;-79
2023/07/20 04:15:18;;;;;;;2.17;0.60;;;18.40;99.90;;;;;;5054822;28;20622;-80
2023/07/20 04:17:49;;;;;;;1.02;0.45;;;18.40;99.90;;;;;;5053909;28;20201;-79
2023/07/20 04:20:23;;;;;;;0.90;0.45;;;18.40;99.90;;;;;;5054446;28;20692;-80
2023/07/20 04:22:54;;;;;;;1.67;0.50;;;18.40;99.90;;;;;;5054537;28;20641;-80
2023/07/20 04:25:25;;;;;;;3.90;0.40;;;18.40;99.90;;;;;;5053756;28;20206;-82
2023/07/20 04:27:56;;;;;;;2.22;0.63;;;18.50;99.90;;;;;;5056044;28;20661;-77
2023/07/20 04:30:27;;;;;;;2.20;0.50;;;18.60;99.90;;;;;;5074164;28;20200;-80
2023/07/20 04:32:59;;;;;;;1.20;0.63;;;18.60;99.90;;;;;;5074658;28;20193;-80
2023/07/20 04:35:55;;;;;;;1.10;0.40;;;18.60;99.90;;;;;;5074293;28;20192;-82
2023/07/20 04:38:27;;;;;;;1.73;0.70;;;18.50;99.90;;;;;;5053584;28;20206;-79
2023/07/20 04:40:58;;;;;;;1.13;0.50;;;18.40;99.90;;;;;;5053682;28;20579;-79
2023/07/20 04:43:29;;;;;;;2.20;0.60;;;18.40;99.90;;;;;;5053858;28;20229;-82
2023/07/20 04:46:00;;;;;;;1.05;0.50;;;18.40;99.90;;;;;;5054230;28;20680;-83
2023/07/20 04:48:31;;;;;;;0.95;0.60;;;18.40;99.90;;;;;;5054234;28;20209;-81
2023/07/20 04:51:04;;;;;;;1.13;0.50;;;18.40;99.90;;;;;;5053763;28;20201;-80
2023/07/20 04:53:35;;;;;;;1.92;0.60;;;18.30;99.90;;;;;;5053972;28;20197;-80
2023/07/20 04:56:07;;;;;;;3.58;0.73;;;18.20;99.90;;;;;;5053849;28;20196;-82
2023/07/20 04:58:38;;;;;;;1.65;0.52;;;18.20;99.90;;;;;;5067338;28;20699;-81
2023/07/20 05:01:09;;;;;;;2.70;0.60;;;18.30;99.90;;;;;;5073836;28;20221;-80
2023/07/20 05:03:40;;;;;;;2.30;0.77;;;18.30;99.90;;;;;;5056547;28;20197;-81
2023/07/20 05:06:13;;;;;;;2.00;0.60;;;18.30;99.90;;;;;;5052787;28;20197;-80
2023/07/20 05:08:44;;;;;;;1.48;0.57;;;18.30;99.90;;;;;;5052830;28;20229;-78
2023/07/20 05:11:15;;;;;;;2.28;0.50;;;18.30;99.90;;;;;;5053185;28;20211;-81
2023/07/20 05:13:47;;;;;;;2.58;0.50;;;18.30;99.90;;;;;;5053006;28;20276;-82
2023/07/20 05:16:18;;;;;;;1.23;0.30;;;18.30;99.90;;;;;;5052910;28;20665;-83
2023/07/20 05:18:49;;;;;;;2.35;0.52;;;18.30;99.90;;;;;;5052700;28;20205;-81
2023/07/20 05:21:22;;;;;;;1.70;0.57;;;18.30;99.90;;;;;;5052439;28;20218;-82
2023/07/20 05:23:53;;;;;;;1.42;0.60;;;18.30;99.90;;;;;;5053173;28;20276;-81
2023/07/20 05:26:24;;;;;;;1.27;0.55;;;18.30;99.90;;;;;;5052973;28;20197;-81
2023/07/20 05:28:55;;;;;;;1.63;0.50;;;18.30;99.90;;;;;;5053302;28;20215;-81
2023/07/20 05:31:26;;;;;;;0.77;0.50;;;18.20;99.90;;;;;;5052461;28;20665;-76
2023/07/20 05:33:57;;;;;;;1.90;0.50;;;18.30;99.90;;;;;;5053250;28;20273;-78
2023/07/20 05:36:30;;;;;;;1.63;0.50;;;18.30;99.90;;;;;;5053215;28;20189;-80
2023/07/20 05:39:02;;;;;;;2.63;0.43;;;18.30;99.90;;;;;;5053115;28;20193;-79
2023/07/20 05:41:33;;;;;;;1.58;0.50;;;18.30;99.90;;;;;;5053288;28;20316;-81
2023/07/20 05:44:04;;;;;;;2.00;0.47;;;18.20;99.90;;;;;;5053125;28;20209;-78
2023/07/20 05:46:35;;;;;;;1.75;0.40;;;18.30;99.90;;;;;;5052647;28;20642;-80
2023/07/20 05:49:06;;;;;;;1.38;0.60;;;18.30;99.90;;;;;;5053074;28;20205;-78
2023/07/20 05:51:39;;;;;;;1.58;0.70;;;18.20;99.90;;;;;;5053310;28;20225;-79
2023/07/20 05:54:10;;;;;;;1.58;0.60;;;18.10;99.90;;;;;;5053137;28;20284;-79
2023/07/20 05:56:41;;;;;;;1.20;0.60;;;18.10;99.90;;;;;;5051543;28;20197;-78
2023/07/20 05:59:12;;;;;;;1.85;0.63;;;18.00;99.90;;;;;;5052370;28;20204;-80
2023/07/20 06:01:43;;;;;;;0.50;0.50;;;18.00;99.90;;;;;;5052936;28;20226;-76
2023/07/20 06:04:15;;;;;;;2.17;0.60;;;18.00;99.90;;;;;;5053023;28;20204;-79
2023/07/20 06:06:48;;;;;;;2.97;0.70;;;18.00;99.90;;;;;;5063082;28;20194;-78
2023/07/20 06:09:19;;;;;;;2.88;1.00;;;18.00;99.90;;;;;;5052374;28;20245;-75
2023/07/20 06:11:50;;;;;;;1.50;0.70;;;18.00;99.90;;;;;;5052200;28;20601;-79
2023/07/20 06:14:21;;;;;;;2.28;0.60;;;18.10;99.90;;;;;;5052737;28;20196;-79
2023/07/20 06:16:53;;;;;;;2.65;0.60;;;18.10;99.90;;;;;;5051730;28;20212;-80
2023/07/20 06:19:24;;;;;;;1.10;0.70;;;18.10;99.90;;;;;;5052906;28;20208;-78
2023/07/20 06:21:57;;;;;;;2.25;0.77;;;18.10;99.90;;;;;;5052969;28;20221;-80
2023/07/20 06:24:28;;;;;;;0.95;0.57;;;18.10;99.90;;;;;;5052854;28;20638;-80
2023/07/20 06:26:59;;;;;;;1.30;0.80;;;18.10;99.90;;;;;;5052749;28;20634;-80
2023/07/20 06:29:31;;;;;;;1.90;1.00;;;18.00;99.90;;;;;;5051703;28;20204;-79
2023/07/20 06:32:02;;;;;;;1.58;0.88;;;18.00;99.90;;;;;;5051868;28;20202;-81
2023/07/20 06:34:36;;;;;;;1.30;1.00;;;17.90;99.90;;;;;;5055672;28;20198;-80
2023/07/20 06:37:09;;;;;;;1.67;1.10;;;17.90;99.90;;;;;;5056933;28;20197;-80
2023/07/20 06:39:41;;;;;;;1.23;0.65;;;17.80;99.90;;;;;;5056610;28;20646;-80
2023/07/20 06:42:12;;;;;;;2.50;0.88;;;17.70;99.90;;;;;;5055587;28;20244;-80
2023/07/20 06:44:43;;;;;;;1.95;0.82;;;17.60;99.90;;;;;;5056403;28;20197;-80
2023/07/20 06:47:15;;;;;;;4.90;0.80;;;17.50;99.90;;;;;;5056365;28;20196;-80
2023/07/20 06:49:46;;;;;;;5.10;0.90;;;17.40;99.90;;;;;;5056416;28;20668;-80
2023/07/20 06:52:19;;;;;;;5.38;0.90;;;17.30;99.90;;;;;;5056299;28;20204;-80
2023/07/20 06:54:50;;;;;;;3.13;1.05;;;17.20;99.90;;;;;;5055956;28;20233;-81
2023/07/20 06:57:21;;;;;;;3.63;0.90;;;17.10;99.90;;;;;;5055496;28;20555;-80
2023/07/20 06:59:53;;;;;;;3.95;1.27;;;17.00;99.90;;;;;;5056163;28;20196;-79
2023/07/20 07:02:24;;;;;;;7.07;1.05;;;16.90;99.90;;;;;;5056447;28;20221;-81
2023/07/20 07:04:56;;;;;;;3.67;0.85;;;16.80;99.90;;;;;;5056113;28;20194;-81
2023/07/20 07:07:29;;;;;;;2.47;0.70;;;16.70;99.90;;;;;;5055185;28;20198;-81
2023/07/20 07:10:00;;;;;;;1.92;0.80;;;16.60;99.90;;;;;;5055033;28;20233;-81
2023/07/20 07:12:31;;;;;;;1.88;0.90;;;16.50;99.90;;;;;;5055818;28;20201;-80
2023/07/20 07:15:02;;;;;;;2.75;1.10;;;16.40;99.90;;;;;;5055838;28;20185;-80
2023/07/20 07:17:33;;;;;;;2.75;1.10;;;16.40;99.90;;;;;;5055494;28;20280;-80
2023/07/20 07:20:05;;;;;;;3.10;1.10;;;16.30;99.90;;;;;;5055336;28;20189;-81
2023/07/20 07:22:38;;;;;;;4.60;1.10;;;16.20;99.90;;;;;;5055165;28;20563;-78
2023/07/20 07:25:10;;;;;;;3.60;1.20;;;16.00;99.90;;;;;;5055288;28;20555;-78
2023/07/20 07:27:41;;;;;;;2.40;1.02;;;15.80;99.90;;;;;;5055105;28;20582;-79
2023/07/20 07:30:13;;;;;;;2.72;1.10;;;15.60;99.90;;;;;;5054611;28;20194;-80
2023/07/20 07:32:44;;;;;;;2.45;1.05;;;15.50;99.90;;;;;;5075399;28;20200;-75
2023/07/20 07:35:15;;;;;;;1.45;0.70;;;15.40;99.90;;;;;;5075320;28;20207;-80
2023/07/20 07:37:48;;;;;;;2.10;0.73;;;15.20;99.90;;;;;;5075810;28;20715;-79
2023/07/20 07:40:19;;;;;;;2.67;0.80;;;15.10;99.90;;;;;;5075157;28;20220;-79
2023/07/20 07:42:50;;;;;;;5.18;0.98;;;15.00;99.90;;;;;;5075614;28;20247;-80
2023/07/20 07:45:21;;;;;;;3.25;0.95;;;15.00;99.90;;;;;;5074002;28;20193;-79
2023/07/20 07:47:52;;;;;;;4.10;1.00;;;14.80;99.90;;;;;;5063253;28;20202;-78
2023/07/20 07:50:23;;;;;;;2.42;1.00;;;14.70;99.90;;;;;;5066666;28;20284;-80
2023/07/20 07:52:57;;;;;;;2.20;1.05;;;14.60;99.90;;;;;;5069966;28;20568;-80
2023/07/20 07:55:28;;;;;;;1.70;1.02;;;14.50;99.90;;;;;;5059782;28;20197;-80
2023/07/20 07:57:59;;;;;;;3.03;1.02;;;14.50;99.90;;;;;;5062107;28;20193;-79
2023/07/20 08:00:31;;;;;;;1.83;1.15;;;14.40;99.90;;;;;;5060882;28;20676;-80
2023/07/20 08:03:02;;;;;;;1.73;1.00;;;14.30;99.90;;;;;;5062762;28;20217;-80
2023/07/20 08:05:33;;;;;;;2.28;1.00;;;14.20;99.90;;;;;;5057488;28;20657;-81
2023/07/20 08:08:06;;;;;;;2.22;1.20;;;14.20;99.90;;;;;;5054468;28;20553;-77
2023/07/20 08:10:37;;;;;;;3.65;1.60;;;14.10;99.90;;;;;;5054230;28;20693;-80
2023/07/20 08:13:08;;;;;;;3.03;1.55;;;14.00;99.90;;;;;;5056242;28;20227;-80
2023/07/20 08:15:39;;;;;;;3.97;1.80;;;14.00;99.90;;;;;;5060469;28;20223;-79
2023/07/20 08:18:11;;;;;;;4.38;2.00;;;13.90;99.90;;;;;;5060439;28;20219;-80
2023/07/20 08:20:42;;;;;;;5.10;2.08;;;13.80;99.90;;;;;;5055122;28;20213;-81
2023/07/20 08:23:15;;;;;;;5.35;1.88;;;13.70;99.90;;;;;;5057928;28;20209;-80
2023/07/20 08:25:46;;;;;;;3.30;1.90;;;13.70;99.90;;;;;;5069617;28;20193;-80
2023/07/20 08:28:18;;;;;;;3.92;2.10;;;13.60;99.90;;;;;;5074407;28;20205;-80
2023/07/20 08:30:51;;;;;;;5.50;2.53;;;13.50;99.90;;;;;;5074580;28;20193;-80
2023/07/20 08:33:23;;;;;;;5.55;2.65;;;13.50;99.90;;;;;;5074272;28;20194;-80
2023/07/20 08:35:55;;;;;;;7.80;3.03;;;13.40;99.90;;;;;;5072023;28;20280;-80
2023/07/20 08:38:28;;;;;;;5.40;3.17;;;13.30;99.90;;;;;;5054114;28;20190;-80
2023/07/20 08:40:59;;;;;;;6.00;3.03;;;13.30;99.90;;;;;;5056616;28;20190;-80
2023/07/20 08:43:33;;;;;;;5.88;3.00;;;13.30;99.90;;;;;;5054011;28;20237;-81
2023/07/20 08:46:05;;;;;;;5.20;3.00;;;13.30;99.90;;;;;;5062270;28;20656;-81
2023/07/20 08:48:37;;;;;;;4.78;3.00;;;13.20;99.90;;;;;;5062011;28;20566;-81
2023/07/20 08:51:08;;;;;;;3.50;2.47;;;13.20;99.90;;;;;;5061870;28;20197;-81
2023/07/20 08:53:41;;;;;;;3.30;2.50;;;13.10;99.90;;;;;;5054280;28;20200;-79
2023/07/20 08:56:14;;;;;;;5.13;2.65;;;13.00;99.90;;;;;;5053735;28;20196;-79
2023/07/20 08:58:48;;;;;;;4.40;2.20;;;13.00;99.90;;;;;;5060672;28;20195;-79
2023/07/20 09:01:20;;;;;;;5.05;2.15;;;12.90;99.90;;;;;;5073942;28;20209;-76
2023/07/20 09:03:51;;;;;;;3.15;2.05;;;12.90;99.90;;;;;;5073704;28;20641;-78
2023/07/20 09:06:22;;;;;;;7.13;2.58;;;12.90;99.90;;;;;;5069073;28;20203;-76
2023/07/20 09:08:55;;;;;;;7.18;2.38;;;12.80;99.90;;;;;;5073469;28;20228;-75
2023/07/20 09:11:27;;;;;;;4.63;2.50;;;12.70;99.90;;;;;;5073843;28;20212;-75
2023/07/20 09:14:08;;;;;;;4.57;2.55;;;12.70;99.90;;;;;;5053476;28;20207;-76
2023/07/20 09:16:51;;;;;;;5.68;3.03;;;12.70;99.90;;;;;;5053546;28;20203;-79
2023/07/20 09:19:22;;;;;;;5.22;3.10;;;12.60;99.90;;;;;;5054421;28;20194;-78
2023/07/20 09:21:55;;;;;;;5.43;2.58;;;12.60;99.90;;;;;;5064029;28;20581;-78
2023/07/20 09:24:31;;;;;;;5.93;2.65;;;12.40;99.90;;;;;;5056386;28;20201;-77
2023/07/20 09:27:05;;;;;;;3.15;2.15;;;12.40;99.90;;;;;;5057422;28;20294;-74
2023/07/20 09:29:37;;;;;;;4.47;2.30;;;12.40;99.90;;;;;;5062233;28;20197;-76
2023/07/20 09:32:08;;;;;;;4.93;2.20;;;12.30;99.90;;;;;;5056068;28;20201;-79
2023/07/20 09:34:40;;;;;;;4.68;2.10;;;12.20;99.90;;;;;;5054484;28;20255;-79
2023/07/20 09:37:11;;;;;;;4.30;2.10;;;12.20;99.90;;;;;;5061460;28;20571;-79
2023/07/20 09:39:51;;;;;;;2.33;1.80;;;12.20;99.90;;;;;;5052431;28;20208;-78
2023/07/20 09:42:22;;;;;;;3.70;1.80;;;12.10;99.90;;;;;;5063906;28;20292;-79
2023/07/20 09:44:53;;;;;;;5.05;2.13;;;12.10;99.90;;;;;;5073730;28;20193;-80
2023/07/20 09:47:29;;;;;;;6.90;2.58;;;12.10;99.90;;;;;;5068125;28;20204;-75
2023/07/20 09:50:03;;;;;;;7.63;2.58;;;12.00;99.90;;;;;;5076137;28;20192;-78
2023/07/20 09:52:36;;;;;;;5.22;3.45;;;11.90;99.90;;;;;;5084202;28;20194;-79
2023/07/20 09:55:16;;;;;;;6.50;3.17;;;11.90;99.90;;;;;;5056698;28;20240;-79
2023/07/20 09:57:47;;;;;;;8.20;3.30;;;11.80;99.90;;;;;;5054109;28;20247;-79
2023/07/20 10:00:20;;;;;;;5.57;3.00;;;11.80;99.90;;;;;;5064271;28;20195;-80
2023/07/20 10:02:54;;;;;;;9.73;3.60;;;11.80;99.90;;;;;;5053010;28;20222;-79
2023/07/20 10:05:27;;;;;;;6.65;3.78;;;11.70;99.90;;;;;;5070350;28;20192;-80
2023/07/20 10:07:59;;;;;;;8.25;3.88;;;11.70;99.90;;;;;;5064610;28;20205;-76
2023/07/20 10:10:34;;;;;;;6.13;3.90;;;11.60;99.90;;;;;;5074307;28;20206;-78
2023/07/20 10:13:06;;;;;;;6.57;4.00;;;11.70;99.90;;;;;;5076756;28;20572;-81
2023/07/20 10:15:39;;;;;;;5.95;3.70;;;11.70;99.90;;;;;;5058805;28;20205;-79
2023/07/20 10:18:15;;;;;;;7.43;3.80;;;11.70;99.90;;;;;;5056767;28;20715;-81
2023/07/20 10:20:47;;;;;;;6.03;3.45;;;11.70;99.90;;;;;;5056322;28;20680;-79
2023/07/20 10:23:18;;;;;;;7.90;3.42;;;11.70;99.90;;;;;;5056845;28;20243;-79
2023/07/20 10:25:52;;;;;;;6.22;3.25;;;11.60;99.90;;;;;;5057227;28;20542;-80
2023/07/20 10:28:24;;;;;;;7.30;3.20;;;11.60;99.90;;;;;;5056850;28;20205;-80
2023/07/20 10:30:55;;;;;;;6.85;3.58;;;11.60;99.90;;;;;;5060680;28;20247;-79
2023/07/20 10:33:27;;;;;;;6.53;3.63;;;11.60;99.90;;;;;;5063186;28;20197;-79
2023/07/20 10:36:00;;;;;;;6.43;3.75;;;11.60;99.90;;;;;;5056695;28;20196;-79
2023/07/20 10:38:44;;;;;;;7.43;3.92;;;11.60;99.90;;;;;;5071171;28;20649;-80
2023/07/20 10:41:25;;;;;;;7.97;4.50;;;11.60;99.90;;;;;;5056484;28;20196;-79
2023/07/20 10:44:03;;;;;;;10.02;4.35;;;11.80;99.90;;;;;;5056409;28;20719;-79
2023/07/20 10:46:47;;;;;;;9.63;4.38;;;11.90;99.90;;;;;;5070580;28;20574;-79
2023/07/20 10:49:26;;;;;;;10.20;5.10;;;12.00;99.90;;;;;;5072096;28;20208;-79
2023/07/20 10:52:01;;;;;;;10.75;4.75;;;12.10;99.90;;;;;;5076840;28;20203;-79
2023/07/20 10:54:53;;;;;;;9.27;4.40;;;12.20;99.90;;;;;;5076396;28;20231;-80
2023/07/20 10:57:33;;;;;;;12.07;5.15;;;12.20;99.90;;;;;;5071220;28;20200;-79
2023/07/20 11:00:15;;;;;;;9.80;4.85;;;12.20;99.90;;;;;;5055796;28;20572;-80
2023/07/20 11:02:52;;;;;;;9.50;4.82;;;12.20;99.90;;;;;;5056069;28;20217;-80
2023/07/20 11:05:43;;;;;;;9.77;4.47;;;12.20;99.90;;;;;;5064121;28;20649;-79
2023/07/20 11:08:15;;;;;;;11.95;5.30;;;12.20;99.90;;;;;;5054496;28;20611;-80
2023/07/20 11:10:46;;;;;;;8.40;4.45;;;12.10;99.90;;;;;;5056069;28;20199;-80
2023/07/20 11:13:26;;;;;;;8.75;4.80;;;12.10;99.90;;;;;;5055914;28;20190;-80
2023/07/20 11:16:07;;;;;;;7.93;4.65;;;12.10;99.90;;;;;;5055220;28;20189;-81
2023/07/20 11:18:39;;;;;;;9.43;4.53;;;12.00;99.90;;;;;;5055836;28;20185;-80
2023/07/20 11:21:13;;;;;;;10.68;4.63;;;12.00;99.90;;;;;;5055905;28;20190;-80
2023/07/20 11:23:46;;;;;;;7.28;4.30;;;11.90;99.90;;;;;;5055567;28;20221;-79
2023/07/20 11:26:19;;;;;;;7.68;4.22;;;11.90;99.90;;;;;;5054817;28;20283;-80
2023/07/20 11:28:55;;;;;;;8.98;4.32;;;11.80;99.90;;;;;;5055430;28;20240;-80
2023/07/20 11:31:26;;;;;;;7.75;4.50;;;11.80;99.90;;;;;;5055679;28;20268;-76
2023/07/20 11:33:57;;;;;;;7.05;4.60;;;11.70;99.90;;;;;;5055652;28;20200;-78
2023/07/20 11:36:29;;;;;;;9.50;4.30;;;11.60;99.90;;;;;;5059586;28;20284;-77
2023/07/20 11:39:01;;;;;;;11.10;5.05;;;11.50;99.90;;;;;;5064553;28;20197;-77
2023/07/20 11:41:32;;;;;;;7.95;4.80;;;11.40;99.90;;;;;;5075337;28;20226;-78
2023/07/20 11:44:06;;;;;;;9.48;4.93;;;11.20;99.90;;;;;;5075232;28;20694;-79
2023/07/20 11:46:37;;;;;;;9.20;4.70;;;11.20;99.90;;;;;;5075011;28;20641;-77
2023/07/20 11:49:09;;;;;;;8.75;5.15;;;11.00;99.90;;;;;;5075661;28;20216;-80
2023/07/20 11:51:42;;;;;;;10.60;5.07;;;10.90;99.90;;;;;;5058170;28;20208;-80
2023/07/20 11:54:13;;;;;;;12.93;5.47;;;10.80;99.90;;;;;;5054967;28;20194;-77
2023/07/20 11:56:47;;;;;;;9.50;5.20;;;10.70;99.90;;;;;;5054786;28;20198;-80
2023/07/20 11:59:23;;;;;;;8.55;5.20;;;10.70;99.90;;;;;;5058543;28;20277;-80
2023/07/20 12:01:55;;;;;;;10.40;5.43;;;10.70;99.90;;;;;;5074963;28;20275;-80
2023/07/20 12:04:28;;;;;;;8.57;4.68;;;10.70;99.90;;;;;;5054591;28;20194;-78
2023/07/20 12:06:59;;;;;;;10.57;4.90;;;10.70;99.90;;;;;;5055056;28;20194;-78
2023/07/20 12:09:30;;;;;;;11.07;5.43;;;10.70;99.90;;;;;;5054247;28;20239;-77
2023/07/20 12:12:01;;;;;;;12.07;5.80;;;10.70;99.90;;;;;;5055084;28;20205;-79
2023/07/20 12:14:34;;;;;;;12.05;4.70;;;10.70;99.90;;;;;;5073187;28;20644;-76
2023/07/20 12:17:06;;;;;;;9.45;4.95;;;10.70;99.90;;;;;;5067124;28;20201;-78
2023/07/20 12:19:42;;;;;;;8.98;4.85;;;10.70;99.90;;;;;;5055029;28;20248;-76
2023/07/20 12:22:13;;;;;;;8.93;5.43;;;10.70;99.90;;;;;;5054199;28;20201;-78
2023/07/20 12:24:44;;;;;;;11.30;6.03;;;10.70;99.90;;;;;;5054612;28;20558;-77
2023/07/20 12:27:18;;;;;;;10.18;6.00;;;10.70;99.90;;;;;;5054408;28;20601;-78
2023/07/20 12:29:51;;;;;;;10.80;5.80;;;10.70;99.90;;;;;;5057659;28;20227;-79
2023/07/20 12:32:22;;;;;;;16.10;6.15;;;10.70;99.90;;;;;;5066076;28;20256;-76
2023/07/20 12:34:53;;;;;;;12.20;5.47;;;10.70;99.90;;;;;;5053973;28;20224;-79
2023/07/20 12:37:24;;;;;;;9.45;5.55;;;10.70;99.90;;;;;;5066752;28;20660;-78
2023/07/20 12:39:55;;;;;;;11.88;5.60;;;10.70;99.90;;;;;;5064950;28;20198;-76
2023/07/20 12:42:27;;;;;;;9.85;5.43;;;10.70;99.90;;;;;;5057255;28;20252;-79
2023/07/20 12:45:00;;;;;;;10.07;5.65;;;10.70;99.90;;;;;;5069903;28;20265;-78
2023/07/20 12:47:31;;;;;;;12.73;5.43;;;10.80;99.90;;;;;;5059027;28;20231;-77
2023/07/20 12:50:04;;;;;;;11.32;5.78;;;10.80;99.90;;;;;;5054185;28;20228;-77
2023/07/20 12:52:35;;;;;;;9.48;4.72;;;10.80;99.90;;;;;;5062071;28;20209;-78
2023/07/20 12:55:06;;;;;;;9.43;4.90;;;10.80;99.90;;;;;;5061607;28;20205;-78
2023/07/20 12:57:38;;;;;;;8.30;4.57;;;10.80;99.90;;;;;;5063196;28;20677;-77
2023/07/20 13:00:13;;;;;;;8.65;4.97;;;10.80;99.90;;;;;;5068900;28;20545;-78
2023/07/20 13:02:45;;;;;;;10.07;5.15;;;10.80;99.90;;;;;;5056086;28;20228;-78
2023/07/20 13:05:16;;;;;;;10.10;4.70;;;10.80;99.90;;;;;;5068750;28;20243;-78
2023/07/20 13:07:47;;;;;;;8.35;4.70;;;10.70;99.90;;;;;;5063563;28;20251;-76
2023/07/20 13:10:19;;;;;;;10.35;4.70;;;10.70;99.90;;;;;;5061766;28;20229;-76
2023/07/20 13:12:50;;;;;;;7.55;4.68;;;10.70;99.90;;;;;;5057711;28;20652;-79